Time;durP1;ratioP1;P1;durP2;ratioP2;P2;SDS_P1;SDS_P2;PMS_P1;PMS_P2;Temp;Humidity;BMP_temperature;BMP_pressure;BME280_temperature;BME280_humidity;BME280_pressure;Samples;Min_cycle;Max_cycle;Signal;HPM_P1;HPM_P2
2022/03/23 00:02:03;;;;;;;19.73;13.73;;;;;;;8.28;53.12;102813.31;5056420;28;20052;-87
2022/03/23 00:04:32;;;;;;;21.63;13.73;;;;;;;8.24;56.29;102822.75;5054925;28;20040;-87
2022/03/23 00:07:09;;;;;;;21.27;14.30;;;;;;;8.19;56.29;102819.63;5055964;28;20094;-87
2022/03/23 00:09:40;;;;;;;19.88;13.88;;;;;;;8.12;55.65;102822.13;5055405;28;20052;-87
2022/03/23 00:12:07;;;;;;;18.42;12.55;;;;;;;8.06;55.49;102826.25;5021372;28;20120;-88
2022/03/23 00:14:33;;;;;;;18.58;13.43;;;;;;;8.02;56.09;102829.44;5056039;28;20033;-87
2022/03/23 00:16:58;;;;;;;21.48;14.27;;;;;;;7.99;58.35;102827.88;5021282;28;20087;-87
2022/03/23 00:19:24;;;;;;;18.67;13.30;;;;;;;7.93;59.07;102831.16;5054308;28;20033;-87
2022/03/23 00:21:49;;;;;;;19.95;13.95;;;;;;;7.88;57.09;102825.34;5056195;28;20025;-88
2022/03/23 00:24:18;;;;;;;18.83;13.88;;;;;;;7.80;58.92;102826.09;5055576;28;20469;-87
2022/03/23 00:26:43;;;;;;;20.63;14.23;;;;;;;7.73;58.64;102833.09;5037744;28;20025;-87
2022/03/23 00:29:09;;;;;;;20.20;14.00;;;;;;;7.69;57.57;102823.56;5037651;28;20036;-87
2022/03/23 00:31:37;;;;;;;21.35;14.82;;;;;;;7.67;57.49;102830.97;5037714;28;20098;-87
2022/03/23 00:34:08;;;;;;;20.13;14.25;;;;;;;7.64;58.82;102831.28;5037940;28;20381;-88
2022/03/23 00:36:39;;;;;;;22.45;14.95;;;;;;;7.61;59.49;102823.47;5021765;28;20469;-87
2022/03/23 00:39:07;;;;;;;24.42;15.88;;;;;;;7.59;59.32;102825.44;5037931;28;20385;-87
2022/03/23 00:41:36;;;;;;;21.05;15.20;;;;;;;7.53;58.44;102816.94;5054437;28;20092;-88
2022/03/23 00:44:01;;;;;;;20.73;14.40;;;;;;;7.49;58.11;102823.63;5037300;28;20032;-88
2022/03/23 00:46:30;;;;;;;20.55;14.43;;;;;;;7.45;57.63;102829.47;5055453;28;20029;-88
2022/03/23 00:49:02;;;;;;;22.15;14.90;;;;;;;7.41;56.72;102834.34;5053707;28;20033;-88
2022/03/23 00:51:28;;;;;;;21.67;14.40;;;;;;;7.34;58.11;102823.25;5037180;28;20389;-87
2022/03/23 00:53:53;;;;;;;21.95;15.10;;;;;;;7.32;58.50;102832.50;5055319;28;20083;-88
2022/03/23 00:56:22;;;;;;;21.27;15.40;;;;;;;7.27;58.06;102830.22;5037123;28;20029;-88
2022/03/23 00:58:48;;;;;;;21.13;14.85;;;;;;;7.22;58.19;102839.75;5037131;28;20509;-87
2022/03/23 01:01:22;;;;;;;20.13;13.80;;;;;;;7.13;59.69;102823.44;5053485;28;20036;-88
2022/03/23 01:03:50;;;;;;;22.55;15.18;;;;;;;7.07;59.86;102823.16;5054425;28;20063;-88
2022/03/23 01:06:21;;;;;;;21.30;15.30;;;;;;;7.03;60.25;102825.31;5054959;28;20029;-88
2022/03/23 01:08:48;;;;;;;21.52;15.48;;;;;;;6.99;61.10;102824.72;5037387;28;20033;-88
2022/03/23 01:11:16;;;;;;;26.27;15.05;;;;;;;6.96;61.96;102819.59;5036509;28;20072;-88
2022/03/23 01:13:45;;;;;;;21.40;14.93;;;;;;;6.95;61.47;102828.72;5037334;28;20055;-88
2022/03/23 01:16:16;;;;;;;21.15;15.25;;;;;;;6.91;60.63;102830.00;5053617;28;20033;-88
2022/03/23 01:18:43;;;;;;;23.52;15.68;;;;;;;6.85;60.88;102828.72;5054393;28;20075;-87
2022/03/23 01:21:08;;;;;;;23.52;15.60;;;;;;;6.80;61.16;102825.56;5053102;28;20131;-87
2022/03/23 01:23:34;;;;;;;20.70;14.43;;;;;;;6.76;60.78;102826.00;5036766;28;20051;-88
2022/03/23 01:26:00;;;;;;;20.30;14.25;;;;;;;6.71;62.49;102826.44;5036744;28;20040;-88
2022/03/23 01:28:25;;;;;;;19.67;13.88;;;;;;;6.66;63.57;102820.63;5053546;28;20029;-88
2022/03/23 01:30:51;;;;;;;20.77;13.88;;;;;;;6.62;61.97;102822.72;5036716;28;20059;-87
2022/03/23 01:33:17;;;;;;;21.00;14.73;;;;;;;6.55;63.45;102813.50;5036624;28;20024;-88
2022/03/23 01:35:42;;;;;;;21.67;14.30;;;;;;;6.55;64.06;102816.19;5036825;28;20538;-88
2022/03/23 01:38:08;;;;;;;21.02;14.02;;;;;;;6.54;63.55;102808.25;5020036;28;20043;-88
2022/03/23 01:40:33;;;;;;;19.98;13.23;;;;;;;6.50;61.89;102813.09;5019952;28;20037;-88
2022/03/23 01:43:04;;;;;;;21.67;14.32;;;;;;;6.49;63.71;102809.50;5036218;28;20029;-88
2022/03/23 01:45:30;;;;;;;21.33;15.00;;;;;;;6.46;64.42;102806.25;5036093;28;20106;-88
2022/03/23 01:47:55;;;;;;;19.38;14.40;;;;;;;6.44;62.41;102805.56;5036576;28;20079;-87
2022/03/23 01:50:24;;;;;;;19.50;13.60;;;;;;;6.39;62.34;102807.81;5036510;28;20032;-87
2022/03/23 01:52:49;;;;;;;22.30;15.00;;;;;;;6.38;63.15;102804.25;5035859;28;20025;-88
2022/03/23 01:55:17;;;;;;;20.70;13.88;;;;;;;6.36;63.96;102808.94;5053816;28;20029;-87
2022/03/23 01:57:45;;;;;;;22.52;14.18;;;;;;;6.32;62.19;102804.81;5035935;28;20025;-87
2022/03/23 02:00:16;;;;;;;20.25;13.93;;;;;;;6.28;62.22;102793.44;5036671;28;20029;-88
2022/03/23 02:02:46;;;;;;;19.33;13.77;;;;;;;6.21;63.10;102800.38;5052791;28;20021;-88
2022/03/23 02:05:12;;;;;;;19.77;14.93;;;;;;;6.19;65.11;102794.28;5053719;28;20021;-88
2022/03/23 02:07:41;;;;;;;20.20;13.95;;;;;;;6.17;65.11;102801.69;5035934;28;20025;-88
2022/03/23 02:10:07;;;;;;;19.80;13.68;;;;;;;6.15;65.09;102798.25;5052627;28;20032;-88
2022/03/23 02:12:33;;;;;;;19.42;13.73;;;;;;;6.13;65.02;102801.09;5035911;28;20526;-88
2022/03/23 02:15:18;;;;;;;20.80;14.57;;;;;;;6.10;65.70;102801.38;5035315;28;20040;-88
2022/03/23 02:17:45;;;;;;;22.02;15.15;;;;;;;6.05;64.39;102794.69;5038684;28;20531;-88
2022/03/23 02:20:12;;;;;;;20.80;14.38;;;;;;;6.00;65.20;102797.78;5052248;28;20029;-87
2022/03/23 02:22:38;;;;;;;22.98;15.02;;;;;;;6.00;65.17;102795.09;5052070;28;20025;-88
2022/03/23 02:25:06;;;;;;;21.17;14.52;;;;;;;5.98;65.01;102807.88;5035758;28;20044;-88
2022/03/23 02:27:32;;;;;;;22.05;14.93;;;;;;;5.94;65.61;102804.53;5035871;28;20029;-88
2022/03/23 02:29:58;;;;;;;20.70;15.32;;;;;;;5.92;65.67;102805.66;5051569;28;20438;-87
2022/03/23 02:32:26;;;;;;;21.20;15.18;;;;;;;5.90;66.13;102803.09;5053409;28;20052;-88
2022/03/23 02:34:52;;;;;;;19.67;14.70;;;;;;;5.89;66.54;102805.94;5036412;28;20044;-88
2022/03/23 02:37:17;;;;;;;20.73;14.52;;;;;;;5.85;66.29;102807.22;5053835;28;20385;-88
2022/03/23 02:39:45;;;;;;;20.17;14.10;;;;;;;5.79;65.79;102801.38;5052327;28;20078;-88
2022/03/23 02:42:11;;;;;;;22.05;14.77;;;;;;;5.75;66.27;102807.16;5019206;28;20033;-88
2022/03/23 02:44:36;;;;;;;20.83;14.10;;;;;;;5.72;65.91;102796.66;5052210;28;20027;-87
2022/03/23 02:47:05;;;;;;;20.25;14.88;;;;;;;5.69;66.17;102808.56;5052212;28;20082;-88
2022/03/23 02:49:33;;;;;;;19.23;14.00;;;;;;;5.66;66.00;102794.53;5051849;28;20029;-88
2022/03/23 02:52:01;;;;;;;20.55;14.55;;;;;;;5.62;65.71;102799.31;5053161;28;20498;-87
2022/03/23 03:03:17;;;;;;;22.02;14.73;;;;;;;5.47;65.66;102793.44;5054015;28;20117;-87
2022/03/23 03:05:42;;;;;;;21.17;14.73;;;;;;;5.44;65.16;102799.09;5035228;28;20033;-88
2022/03/23 03:10:54;;;;;;;21.45;14.75;;;;;;;5.37;67.16;102806.81;5053317;28;20031;-87
2022/03/23 03:13:22;;;;;;;21.75;15.07;;;;;;;5.35;66.31;102802.59;5052710;28;20029;-87
2022/03/23 03:15:48;;;;;;;23.02;15.30;;;;;;;5.34;66.23;102803.56;5051695;28;20037;-87
2022/03/23 03:18:13;;;;;;;24.65;16.42;;;;;;;5.33;65.69;102807.22;5052572;28;20142;-88
2022/03/23 03:20:39;;;;;;;22.75;15.95;;;;;;;5.31;65.67;102809.22;5051767;28;20037;-87
2022/03/23 03:23:07;;;;;;;21.83;15.90;;;;;;;5.26;65.69;102810.47;5035027;28;20043;-87
2022/03/23 03:25:32;;;;;;;21.33;15.52;;;;;;;5.21;65.82;102809.13;5034833;28;20129;-87
2022/03/23 03:27:58;;;;;;;21.33;15.27;;;;;;;5.14;66.11;102808.84;5034864;28;20132;-87
2022/03/23 03:30:23;;;;;;;22.77;15.98;;;;;;;5.15;65.46;102815.06;5018391;28;20094;-87
2022/03/23 03:32:52;;;;;;;22.63;16.08;;;;;;;5.11;65.48;102811.78;5051707;28;20059;-87
2022/03/23 03:35:17;;;;;;;20.58;15.70;;;;;;;5.09;65.48;102813.75;5035444;28;20036;-87
2022/03/23 03:37:43;;;;;;;21.73;14.82;;;;;;;5.06;66.76;102814.88;5018401;28;20033;-87
2022/03/23 03:40:09;;;;;;;19.77;14.63;;;;;;;5.02;66.98;102815.25;5019486;28;20175;-88
2022/03/23 03:42:36;;;;;;;21.55;15.27;;;;;;;4.98;66.47;102817.34;5038145;28;20397;-87
2022/03/23 03:45:04;;;;;;;21.95;14.80;;;;;;;4.92;66.36;102812.50;5055566;28;20043;-88
2022/03/23 03:47:29;;;;;;;19.67;13.90;;;;;;;4.87;66.75;102814.72;5055257;28;20029;-87
2022/03/23 03:49:57;;;;;;;18.88;13.38;;;;;;;4.82;67.68;102809.72;5054785;28;20477;-87
2022/03/23 03:52:23;;;;;;;20.60;13.80;;;;;;;4.81;67.91;102817.91;5039136;28;20163;-86
2022/03/23 03:54:51;;;;;;;20.52;14.00;;;;;;;4.79;68.03;102817.22;5056364;28;20059;-87
2022/03/23 03:57:19;;;;;;;22.40;15.63;;;;;;;4.77;67.78;102816.47;5039152;28;20033;-87
2022/03/23 03:59:45;;;;;;;21.48;14.82;;;;;;;4.74;67.92;102821.13;5038126;28;20053;-87
2022/03/23 04:02:10;;;;;;;21.52;14.45;;;;;;;4.71;67.69;102817.81;5038610;28;20037;-87
2022/03/23 04:04:36;;;;;;;20.52;14.63;;;;;;;4.67;68.03;102817.25;5055423;28;20082;-87
2022/03/23 04:07:02;;;;;;;22.67;15.20;;;;;;;4.65;68.98;102816.53;5037915;28;20029;-87
2022/03/23 04:09:27;;;;;;;20.00;13.38;;;;;;;4.60;69.22;102816.03;5037965;28;20442;-87
2022/03/23 04:11:52;;;;;;;21.98;14.90;;;;;;;4.57;69.65;102819.00;5038572;28;20064;-87
2022/03/23 04:14:18;;;;;;;18.70;14.20;;;;;;;4.54;69.55;102830.00;5037931;28;20401;-88
2022/03/23 04:16:46;;;;;;;20.75;14.75;;;;;;;4.53;69.77;102822.91;5037853;28;20069;-87
2022/03/23 04:19:12;;;;;;;19.10;13.77;;;;;;;4.50;69.39;102823.16;5056175;28;20036;-87
2022/03/23 04:21:40;;;;;;;21.00;14.77;;;;;;;4.46;68.55;102827.94;5056157;28;20369;-87
2022/03/23 04:24:06;;;;;;;19.20;14.15;;;;;;;4.43;68.29;102822.84;5037616;28;20396;-87
2022/03/23 04:26:37;;;;;;;22.45;14.98;;;;;;;4.43;67.61;102819.28;5037669;28;20029;-87
2022/03/23 04:29:03;;;;;;;21.75;14.75;;;;;;;4.41;68.13;102818.56;5021288;28;20029;-87
2022/03/23 04:31:30;;;;;;;22.05;16.33;;;;;;;4.42;68.00;102815.75;5037403;28;20040;-87
2022/03/23 04:33:59;;;;;;;24.88;16.80;;;;;;;4.46;68.39;102824.38;5037745;28;20048;-87
2022/03/23 04:36:24;;;;;;;28.20;19.48;;;;;;;4.50;67.13;102821.34;5021430;28;20477;-87
2022/03/23 04:38:50;;;;;;;25.90;17.75;;;;;;;4.48;67.24;102825.13;5021170;28;20043;-87
2022/03/23 04:41:15;;;;;;;25.80;17.52;;;;;;;4.47;67.49;102818.88;5054224;28;20116;-87
2022/03/23 04:43:46;;;;;;;26.77;17.92;;;;;;;4.45;67.39;102828.91;5037704;28;20029;-88
2022/03/23 04:46:15;;;;;;;23.02;15.95;;;;;;;4.39;67.87;102827.59;5054662;28;20389;-88
2022/03/23 04:48:41;;;;;;;22.55;15.68;;;;;;;4.36;68.86;102827.00;5055036;28;20043;-88
2022/03/23 04:51:06;;;;;;;21.90;15.48;;;;;;;4.35;69.03;102833.34;5053989;28;20393;-88
2022/03/23 04:53:37;;;;;;;21.73;15.85;;;;;;;4.34;70.13;102837.00;5037124;28;20025;-87
2022/03/23 04:56:06;;;;;;;20.45;15.80;;;;;;;4.30;69.38;102841.78;5054455;28;20029;-87
2022/03/23 04:58:31;;;;;;;20.73;14.23;;;;;;;4.19;69.35;102839.09;5017496;28;20053;-88
2022/03/23 05:00:57;;;;;;;21.63;15.18;;;;;;;4.12;69.04;102845.94;5033848;28;20528;-87
2022/03/23 05:03:25;;;;;;;22.10;15.32;;;;;;;4.06;68.70;102849.13;5050190;28;20096;-88
2022/03/23 05:05:52;;;;;;;20.50;14.45;;;;;;;4.02;68.28;102859.28;5017435;28;20056;-88
2022/03/23 05:08:17;;;;;;;20.48;14.23;;;;;;;4.02;68.10;102861.97;5034055;28;20029;-88
2022/03/23 05:10:43;;;;;;;21.48;13.80;;;;;;;4.01;68.38;102862.94;5034554;28;20036;-88
2022/03/23 05:13:09;;;;;;;19.77;13.82;;;;;;;4.02;68.34;102856.59;5017456;28;20099;-88
2022/03/23 05:15:36;;;;;;;21.70;14.50;;;;;;;4.00;68.78;102858.53;5049660;28;20083;-88
2022/03/23 05:18:01;;;;;;;20.33;14.63;;;;;;;3.99;69.65;102860.38;5033709;28;20115;-88
2022/03/23 05:20:30;;;;;;;21.67;15.80;;;;;;;3.97;69.92;102856.97;5033805;28;20029;-88
2022/03/23 05:22:55;;;;;;;20.90;14.63;;;;;;;3.96;69.98;102866.00;5050274;28;20037;-87
2022/03/23 05:25:23;;;;;;;21.90;14.82;;;;;;;3.93;69.98;102860.03;5033253;28;20025;-88
2022/03/23 05:27:49;;;;;;;22.98;15.98;;;;;;;3.92;68.76;102858.31;5033479;28;20397;-88
2022/03/23 05:30:14;;;;;;;22.85;16.85;;;;;;;3.92;68.64;102863.69;5050370;28;20025;-87
2022/03/23 05:32:41;;;;;;;23.33;16.67;;;;;;;3.95;68.63;102860.75;5033697;28;20029;-87
2022/03/23 05:35:10;;;;;;;22.25;16.02;;;;;;;3.96;68.46;102862.47;5049601;28;20486;-87
2022/03/23 05:37:35;;;;;;;25.58;16.10;;;;;;;3.95;68.89;102860.75;5033834;28;20405;-87
2022/03/23 05:40:09;;;;;;;23.20;16.30;;;;;;;3.96;69.23;102865.16;5033151;28;20046;-88
2022/03/23 05:42:37;;;;;;;24.33;17.13;;;;;;;3.96;69.19;102866.00;5050014;28;20116;-88
2022/03/23 05:45:03;;;;;;;23.88;16.73;;;;;;;3.96;69.18;102868.69;5032847;28;20129;-88
2022/03/23 05:47:28;;;;;;;23.05;16.23;;;;;;;3.95;69.42;102868.81;5016397;28;20123;-87
2022/03/23 05:49:57;;;;;;;22.70;16.27;;;;;;;3.94;69.53;102869.78;5034480;28;20354;-87
2022/03/23 05:52:23;;;;;;;24.88;16.92;;;;;;;3.92;68.43;102869.06;5033274;28;20030;-87
2022/03/23 05:54:48;;;;;;;22.98;16.65;;;;;;;3.87;69.22;102874.78;5016393;28;20049;-87
2022/03/23 05:57:13;;;;;;;25.38;18.05;;;;;;;3.90;69.37;102879.03;5032539;28;20048;-87
2022/03/23 05:59:39;;;;;;;23.70;16.92;;;;;;;3.93;70.38;102878.84;5032873;28;20053;-87
2022/03/23 06:02:07;;;;;;;23.80;17.40;;;;;;;3.92;69.00;102867.22;5015986;28;20043;-88
2022/03/23 06:04:33;;;;;;;23.70;17.00;;;;;;;3.93;69.30;102877.00;4999450;28;20057;-88
2022/03/23 06:06:58;;;;;;;24.35;17.15;;;;;;;3.97;69.17;102883.84;5016261;28;20474;-85
2022/03/23 06:09:24;;;;;;;21.30;15.85;;;;;;;4.02;69.56;102878.94;5033403;28;20033;-90
2022/03/23 06:11:49;;;;;;;23.67;17.17;;;;;;;4.08;70.58;102888.34;5000698;28;20111;-91
2022/03/23 06:14:15;;;;;;;24.48;17.25;;;;;;;4.14;69.54;102887.84;5033059;28;20030;-91
2022/03/23 06:16:40;;;;;;;24.35;18.77;;;;;;;4.18;69.43;102891.16;5034114;28;20029;-91
2022/03/23 06:19:10;;;;;;;25.13;17.85;;;;;;;4.21;68.74;102880.16;5049960;28;20470;-91
2022/03/23 06:21:36;;;;;;;24.02;16.75;;;;;;;4.26;69.99;102880.63;5033242;28;20042;-84
2022/03/23 06:24:02;;;;;;;23.58;17.27;;;;;;;4.31;70.22;102877.56;5032802;28;20028;-88
2022/03/23 06:26:28;;;;;;;24.05;17.60;;;;;;;4.36;70.54;102888.81;5048996;28;20033;-88
2022/03/23 06:28:53;;;;;;;23.73;16.90;;;;;;;4.38;69.93;102885.03;5048902;28;20021;-88
2022/03/23 06:31:20;;;;;;;23.02;16.92;;;;;;;4.45;69.58;102881.84;5049070;28;20043;-89
2022/03/23 06:33:46;;;;;;;24.23;17.63;;;;;;;4.50;69.73;102885.88;5049897;28;20037;-87
2022/03/23 06:36:12;;;;;;;24.27;17.50;;;;;;;4.57;69.24;102887.03;5048946;28;20113;-87
2022/03/23 06:38:40;;;;;;;23.65;17.42;;;;;;;4.64;69.05;102892.78;5033200;28;20029;-87
2022/03/23 06:41:07;;;;;;;23.23;17.20;;;;;;;4.70;68.69;102894.13;5032714;28;20069;-88
2022/03/23 06:43:33;;;;;;;24.17;17.17;;;;;;;4.75;68.82;102899.97;5016030;28;20042;-87
2022/03/23 06:45:59;;;;;;;23.38;16.80;;;;;;;4.81;69.88;102906.69;5033266;28;20029;-87
2022/03/23 06:48:25;;;;;;;24.23;17.13;;;;;;;4.87;69.57;102907.03;5031811;28;20030;-87
2022/03/23 06:50:53;;;;;;;23.90;16.92;;;;;;;4.94;69.41;102912.75;5048278;28;20032;-87
2022/03/23 06:53:18;;;;;;;23.67;16.35;;;;;;;5.02;69.86;102912.97;5031701;28;20065;-88
2022/03/23 06:55:44;;;;;;;23.17;16.58;;;;;;;5.09;69.72;102914.19;5031783;28;20402;-87
2022/03/23 06:58:09;;;;;;;22.60;16.80;;;;;;;5.15;69.49;102907.41;5033749;28;20148;-87
2022/03/23 07:00:37;;;;;;;23.40;16.83;;;;;;;5.22;68.84;102907.75;5051815;28;20140;-88
2022/03/23 07:03:05;;;;;;;20.98;14.90;;;;;;;5.28;68.69;102909.91;5035814;28;20044;-88
2022/03/23 07:05:31;;;;;;;21.15;15.57;;;;;;;5.33;70.16;102913.09;5035180;28;20131;-88
2022/03/23 07:10:40;;;;;;;21.60;15.20;;;;;;;5.51;67.64;102913.34;5037824;28;20162;-87
2022/03/23 07:13:05;;;;;;;23.10;15.65;;;;;;;5.61;67.17;102916.13;5018585;28;20047;-87
2022/03/23 07:15:32;;;;;;;21.40;15.10;;;;;;;5.69;67.13;102918.16;5036630;28;20108;-87
2022/03/23 07:17:57;;;;;;;20.45;14.68;;;;;;;5.75;65.61;102915.75;5055621;28;20029;-87
2022/03/23 07:20:24;;;;;;;20.98;14.30;;;;;;;5.84;64.97;102921.34;5055420;28;20036;-87
2022/03/23 07:22:49;;;;;;;20.60;15.02;;;;;;;5.92;64.62;102918.81;5038528;28;20081;-87
2022/03/23 07:25:15;;;;;;;24.27;15.23;;;;;;;6.02;64.69;102911.69;5023065;28;20120;-88
2022/03/23 07:27:41;;;;;;;21.17;14.48;;;;;;;6.11;63.63;102916.28;5040045;28;20116;-88
2022/03/23 07:30:10;;;;;;;21.20;15.32;;;;;;;6.19;63.60;102921.00;5022849;28;20029;-87
2022/03/23 07:32:39;;;;;;;21.23;15.23;;;;;;;6.27;63.18;102913.06;5038836;28;20033;-88
2022/03/23 07:35:07;;;;;;;21.30;14.38;;;;;;;6.37;63.14;102921.19;5038333;28;20048;-87
2022/03/23 07:37:33;;;;;;;19.65;13.80;;;;;;;6.45;63.24;102924.06;5038409;28;20029;-87
2022/03/23 07:39:59;;;;;;;19.67;13.68;;;;;;;6.54;62.98;102927.78;5038608;28;20435;-87
2022/03/23 07:42:25;;;;;;;20.05;13.77;;;;;;;6.63;62.26;102918.84;5022319;28;20526;-87
2022/03/23 07:44:50;;;;;;;20.85;14.13;;;;;;;6.74;61.68;102928.66;5038387;28;20120;-88
2022/03/23 07:47:16;;;;;;;21.42;14.45;;;;;;;6.84;61.77;102926.84;5021880;28;20033;-88
2022/03/23 07:49:42;;;;;;;20.77;14.57;;;;;;;6.97;60.00;102921.19;5054078;28;20024;-88
2022/03/23 07:52:08;;;;;;;19.75;13.25;;;;;;;7.12;59.92;102935.13;5021967;28;20043;-88
2022/03/23 07:54:34;;;;;;;19.30;13.18;;;;;;;7.24;59.25;102937.69;5038735;28;20116;-88
2022/03/23 07:57:00;;;;;;;18.55;13.07;;;;;;;7.32;59.60;102938.69;5038011;28;20124;-87
2022/03/23 07:59:26;;;;;;;18.42;12.98;;;;;;;7.40;58.49;102942.50;5037681;28;20053;-87
2022/03/23 08:01:51;;;;;;;19.42;13.30;;;;;;;7.48;58.07;102945.34;5038456;28;20036;-87
2022/03/23 08:04:16;;;;;;;19.20;12.85;;;;;;;7.58;58.04;102942.63;5037974;28;20041;-87
2022/03/23 08:06:42;;;;;;;17.17;11.80;;;;;;;7.65;57.51;102950.00;5038154;28;20029;-87
2022/03/23 08:09:10;;;;;;;18.75;12.85;;;;;;;7.75;57.39;102939.19;5037949;28;20061;-87
2022/03/23 08:11:36;;;;;;;16.98;11.13;;;;;;;7.85;57.44;102944.56;5038475;28;20029;-87
2022/03/23 08:14:04;;;;;;;17.50;12.02;;;;;;;7.95;57.13;102942.69;5038870;28;20090;-87
2022/03/23 08:16:30;;;;;;;18.45;11.85;;;;;;;8.04;56.71;102940.94;5037546;28;20040;-87
2022/03/23 08:18:55;;;;;;;16.35;11.27;;;;;;;8.12;56.46;102943.78;5038733;28;20040;-87
2022/03/23 08:21:24;;;;;;;17.65;11.80;;;;;;;8.21;56.10;102940.19;5054382;28;20040;-87
2022/03/23 08:23:51;;;;;;;18.08;12.25;;;;;;;8.31;55.44;102942.00;5055920;28;20025;-88
2022/03/23 08:26:21;;;;;;;16.42;11.40;;;;;;;8.41;55.45;102940.97;5038055;28;20477;-87
2022/03/23 08:28:47;;;;;;;18.17;13.15;;;;;;;8.51;55.68;102943.63;5020980;28;20048;-87
2022/03/23 08:31:13;;;;;;;18.13;12.57;;;;;;;8.63;54.83;102938.03;5055428;28;20033;-87
2022/03/23 08:33:40;;;;;;;19.42;12.65;;;;;;;8.73;54.75;102945.06;5038431;28;20025;-87
2022/03/23 08:36:08;;;;;;;19.50;13.57;;;;;;;8.86;54.69;102933.03;5054400;28;20385;-87
2022/03/23 08:38:34;;;;;;;18.88;13.18;;;;;;;8.98;53.71;102934.53;5055257;28;20104;-88
2022/03/23 08:41:00;;;;;;;20.38;13.57;;;;;;;9.11;52.55;102943.13;5037476;28;20036;-87
2022/03/23 08:43:26;;;;;;;18.35;12.85;;;;;;;9.22;53.48;102938.47;5055373;28;20032;-88
2022/03/23 08:45:52;;;;;;;16.15;11.63;;;;;;;9.33;52.60;102940.09;5037316;28;20029;-88
2022/03/23 08:48:20;;;;;;;15.93;11.07;;;;;;;9.42;52.44;102936.44;5037305;28;20040;-88
2022/03/23 08:50:47;;;;;;;17.10;11.57;;;;;;;9.51;51.99;102942.75;5038048;28;20446;-87
2022/03/23 08:53:13;;;;;;;16.52;11.07;;;;;;;9.60;51.92;102939.13;5054007;28;20072;-88
2022/03/23 08:55:38;;;;;;;17.13;11.63;;;;;;;9.70;51.75;102948.03;5020492;28;20037;-88
2022/03/23 08:58:04;;;;;;;17.67;11.68;;;;;;;9.80;51.45;102942.47;5037233;28;20037;-88
2022/03/23 09:00:33;;;;;;;17.42;11.95;;;;;;;9.92;50.94;102935.81;5017190;28;20064;-87
2022/03/23 09:03:02;;;;;;;17.05;11.93;;;;;;;10.06;50.13;102942.47;5017175;28;20293;-87
2022/03/23 09:05:28;;;;;;;16.02;11.40;;;;;;;10.21;50.36;102936.47;5050558;28;20025;-88
2022/03/23 09:07:54;;;;;;;17.00;11.75;;;;;;;10.32;48.08;102942.44;5034887;28;20367;-88
2022/03/23 09:10:20;;;;;;;16.83;11.63;;;;;;;10.46;48.21;102937.44;5033436;28;20083;-87
2022/03/23 09:12:46;;;;;;;18.52;12.38;;;;;;;10.63;47.37;102938.34;5049930;28;20022;-87
2022/03/23 09:15:14;;;;;;;15.90;11.32;;;;;;;10.78;48.38;102934.00;5016960;28;20033;-88
2022/03/23 09:17:41;;;;;;;16.83;11.18;;;;;;;10.93;46.80;102933.34;5033848;28;20470;-88
2022/03/23 09:20:07;;;;;;;17.83;10.95;;;;;;;11.04;46.86;102939.31;5050344;28;20029;-87
2022/03/23 09:22:36;;;;;;;15.93;11.60;;;;;;;11.15;45.68;102937.28;5050583;28;20025;-88
2022/03/23 09:25:10;;;;;;;19.25;12.05;;;;;;;11.31;46.10;102937.31;5050007;28;20107;-88
2022/03/23 09:27:38;;;;;;;18.48;12.02;;;;;;;11.47;45.38;102931.03;5050664;28;20057;-88
2022/03/23 09:30:04;;;;;;;15.80;10.88;;;;;;;11.62;45.43;102933.91;5033628;28;20029;-88
2022/03/23 09:32:33;;;;;;;18.00;12.13;;;;;;;11.82;44.86;102941.69;5033050;28;20087;-88
2022/03/23 09:35:00;;;;;;;17.23;12.20;;;;;;;11.98;45.78;102936.25;5050014;28;20033;-88
2022/03/23 09:40:10;;;;;;;17.70;12.50;;;;;;;12.32;41.83;102937.84;5033760;28;20053;-88
2022/03/23 09:42:36;;;;;;;16.52;11.40;;;;;;;12.49;41.77;102932.31;5032905;28;20061;-88
2022/03/23 09:45:05;;;;;;;16.80;11.77;;;;;;;12.63;40.59;102934.31;5049733;28;20033;-88
2022/03/23 09:47:30;;;;;;;15.05;11.23;;;;;;;12.78;39.79;102931.66;5033030;28;20385;-88
2022/03/23 09:49:56;;;;;;;14.70;10.60;;;;;;;12.96;39.04;102923.19;5032398;28;20039;-88
2022/03/23 09:52:21;;;;;;;17.55;11.00;;;;;;;13.13;39.87;102923.94;5033333;28;20033;-87
2022/03/23 09:54:47;;;;;;;15.82;10.85;;;;;;;13.32;38.54;102923.44;5033210;28;20116;-88
2022/03/23 09:57:16;;;;;;;18.08;13.30;;;;;;;13.50;37.36;102928.59;5017307;28;20037;-88
2022/03/23 09:59:42;;;;;;;19.27;12.27;;;;;;;13.67;36.69;102933.91;5016656;28;20065;-87
2022/03/23 10:02:33;;;;;;;17.52;12.38;;;;;;;13.88;36.44;102919.56;5016416;28;20049;-88
2022/03/23 10:05:49;;;;;;;17.75;12.23;;;;;;;14.13;39.13;102930.16;5022336;28;20056;-88
2022/03/23 10:08:52;;;;;;;15.18;10.73;;;;;;;14.35;37.65;102931.97;4973436;28;20078;-88
2022/03/23 10:11:37;;;;;;;;;;;;;;;14.54;37.84;102932.41;5033136;28;20032;-87
2022/03/23 10:14:40;;;;;;;12.25;9.02;;;;;;;14.78;37.13;102934.00;5031998;28;19982;-88
2022/03/23 10:17:40;;;;;;;13.95;9.07;;;;;;;15.03;36.15;102928.19;5033788;28;20029;-88
2022/03/23 10:20:05;;;;;;;15.10;11.07;;;;;;;15.24;34.39;102939.09;5032601;28;20051;-88
2022/03/23 10:22:31;;;;;;;14.02;9.55;;;;;;;15.44;33.59;102928.34;5032386;28;20052;-88
2022/03/23 10:25:08;;;;;;;16.50;11.38;;;;;;;15.64;34.10;102930.38;5033932;28;20108;-88
2022/03/23 10:27:33;;;;;;;16.73;10.85;;;;;;;15.83;33.74;102934.34;5033033;28;20156;-88
2022/03/23 10:30:01;;;;;;;19.63;12.98;;;;;;;16.01;32.81;102935.75;5032483;28;20453;-88
2022/03/23 10:32:35;;;;;;;18.88;12.95;;;;;;;16.19;34.46;102932.47;5049368;28;20058;-88
2022/03/23 10:35:00;;;;;;;15.60;11.45;;;;;;;16.30;31.47;102929.16;5032696;28;20068;-88
2022/03/23 10:37:32;;;;;;;16.80;11.13;;;;;;;16.46;32.53;102923.34;5031619;28;20059;-87
2022/03/23 10:40:00;;;;;;;16.03;11.37;;;;;;;16.71;31.61;102922.78;5033478;28;20060;-88
2022/03/23 10:42:33;;;;;;;15.35;10.55;;;;;;;16.93;31.46;102923.53;5048454;28;20272;-87
2022/03/23 10:45:15;;;;;;;13.32;9.88;;;;;;;17.20;32.68;102920.81;5048827;28;20025;-88
2022/03/23 10:47:41;;;;;;;15.18;10.35;;;;;;;17.43;30.43;102906.66;5048876;28;20037;-88
2022/03/23 10:50:13;;;;;;;15.25;11.10;;;;;;;17.63;30.74;102914.91;5049716;28;20032;-87
2022/03/23 10:53:04;;;;;;;17.27;10.55;;;;;;;17.91;32.94;102913.84;5036125;28;20462;-88
2022/03/23 10:55:48;;;;;;;15.25;10.60;;;;;;;18.18;29.38;102902.78;5037165;28;20073;-88
2022/03/23 10:58:26;;;;;;;15.20;11.27;;;;;;;18.41;28.65;102903.09;5052585;28;20116;-88
2022/03/23 11:01:00;;;;;;;14.02;9.80;;;;;;;18.69;29.25;102895.53;5037150;28;20117;-88
2022/03/23 11:03:40;;;;;;;15.18;11.15;;;;;;;19.04;29.71;102903.41;5037625;28;20124;-87
2022/03/23 11:06:13;;;;;;;15.85;12.07;;;;;;;19.28;29.63;102902.59;5052622;28;20048;-87
2022/03/23 11:08:39;;;;;;;15.18;11.35;;;;;;;19.53;26.33;102890.72;5036700;28;20099;-88
2022/03/23 11:16:27;;;;;;;12.93;10.48;;;;;;;20.45;25.47;102898.19;5036735;28;20029;-87
2022/03/23 11:19:08;;;;;;;14.20;9.93;;;;;;;20.98;27.05;102887.53;5036530;28;20080;-87
2022/03/23 11:22:11;;;;;;;14.70;10.98;;;;;;;22.94;25.33;102892.63;5052493;28;20030;-88
2022/03/23 11:24:37;;;;;;;13.95;9.85;;;;;;;26.47;20.06;102890.25;5035883;28;20461;-87
2022/03/23 11:27:06;;;;;;;12.82;9.13;;;;;;;29.37;17.73;102887.06;5036697;28;20457;-88
2022/03/23 11:29:33;;;;;;;10.02;8.05;;;;;;;31.68;15.06;102882.06;5035449;28;20385;-87
2022/03/23 11:32:07;;;;;;;11.27;8.55;;;;;;;33.40;15.55;102885.06;5051584;28;20026;-88
2022/03/23 11:34:36;;;;;;;13.07;10.02;;;;;;;34.37;14.92;102874.97;5052089;28;20025;-87
2022/03/23 11:37:03;;;;;;;11.07;9.43;;;;;;;35.62;11.36;102872.41;5051879;28;20029;-87
2022/03/23 11:39:30;;;;;;;9.77;7.68;;;;;;;36.38;10.80;102869.78;5051356;28;20037;-88
2022/03/23 11:41:56;;;;;;;9.15;7.95;;;;;;;36.94;13.41;102870.28;5051638;28;20041;-88
2022/03/23 11:44:22;;;;;;;11.90;9.90;;;;;;;38.11;9.96;102862.44;5036064;28;20021;-88